createdAt,value
2016-06-13T00:00:27.996Z,0
2016-06-13T00:01:28.000Z,0
2016-06-13T00:02:43.130Z,0
2016-06-13T00:03:42.321Z,0
2016-06-13T00:04:28.165Z,0
2016-06-13T00:05:28.262Z,0
2016-06-13T00:06:28.453Z,0
2016-06-13T00:07:42.192Z,0
2016-06-13T00:08:28.286Z,0
2016-06-13T00:09:28.493Z,0
2016-06-13T00:10:28.106Z,0
2016-06-13T00:11:29.202Z,0
2016-06-13T00:12:28.112Z,0
2016-06-13T00:13:28.084Z,0
2016-06-13T00:14:27.649Z,0
2016-06-13T00:15:27.933Z,0
2016-06-13T00:16:28.577Z,0
2016-06-13T00:17:42.474Z,0
2016-06-13T00:18:28.443Z,0
2016-06-13T00:19:29.226Z,0
2016-06-13T00:20:28.652Z,0
2016-06-13T00:21:28.640Z,0
2016-06-13T00:22:28.393Z,0
2016-06-13T00:23:43.321Z,0
2016-06-13T00:24:42.698Z,0
2016-06-13T00:25:29.292Z,0
2016-06-13T00:26:28.592Z,0
2016-06-13T00:27:28.673Z,0
2016-06-13T00:28:42.758Z,0
2016-06-13T00:29:28.446Z,0
2016-06-13T00:30:28.245Z,0
2016-06-13T00:32:28.470Z,0
2016-06-13T00:33:28.473Z,0
2016-06-13T00:34:28.555Z,0
2016-06-13T00:35:28.714Z,0
2016-06-13T00:36:28.701Z,0
2016-06-13T00:37:28.501Z,0
2016-06-13T00:38:28.551Z,0
2016-06-13T00:39:28.351Z,0
2016-06-13T00:41:29.372Z,0
2016-06-13T00:42:28.375Z,0
2016-06-13T00:43:28.583Z,0
2016-06-13T00:45:28.822Z,0
2016-06-13T00:46:28.388Z,0
2016-06-13T00:47:28.609Z,0
2016-06-13T00:48:28.613Z,0
2016-06-13T00:49:28.413Z,0
2016-06-13T00:50:29.041Z,0
2016-06-13T00:51:29.294Z,0
2016-06-13T00:52:28.641Z,0
2016-06-13T00:53:28.675Z,0
2016-06-13T00:54:28.867Z,0
2016-06-13T00:55:30.228Z,0
2016-06-13T00:56:28.748Z,0
2016-06-13T00:57:28.876Z,0
2016-06-13T00:58:28.332Z,0
2016-06-13T00:59:28.507Z,0
2016-06-13T01:01:28.731Z,0
2016-06-13T01:02:28.125Z,0
2016-06-13T01:03:28.534Z,0
2016-06-13T01:04:28.943Z,0
2016-06-13T01:05:28.963Z,0
2016-06-13T01:06:28.746Z,0
2016-06-13T01:07:28.656Z,0
2016-06-13T01:08:57.349Z,0
2016-06-13T01:09:42.211Z,0
2016-06-13T01:11:57.187Z,0
2016-06-13T01:12:28.656Z,0
2016-06-13T01:13:28.628Z,0
2016-06-13T01:14:29.130Z,0
2016-06-13T01:15:28.696Z,0
2016-06-13T01:16:43.858Z,0
2016-06-13T01:17:42.986Z,0
2016-06-13T01:18:29.018Z,0
2016-06-13T01:19:29.068Z,0
2016-06-13T01:20:43.417Z,0
2016-06-13T01:21:56.859Z,0
2016-06-13T01:22:28.859Z,0
2016-06-13T01:23:28.768Z,0
2016-06-13T01:24:28.770Z,0
2016-06-13T01:25:43.745Z,0
2016-06-13T01:26:29.323Z,0
2016-06-13T01:27:28.733Z,0
2016-06-13T01:28:29.377Z,0
2016-06-13T01:29:29.599Z,0
2016-06-13T01:30:28.273Z,0
2016-06-13T01:31:57.342Z,0
2016-06-13T01:32:28.701Z,0
2016-06-13T01:34:28.818Z,0
2016-06-13T01:35:28.820Z,0
2016-06-13T01:36:43.108Z,0
2016-06-13T01:37:28.327Z,0
2016-06-13T01:38:28.845Z,0
2016-06-13T01:39:28.848Z,0
2016-06-13T01:40:43.339Z,0
2016-06-13T01:41:29.089Z,0
2016-06-13T01:42:29.076Z,0
2016-06-13T01:43:43.363Z,0
2016-06-13T01:44:35.176Z,0
2016-06-13T01:45:29.117Z,0
2016-06-13T01:46:29.401Z,0
2016-06-13T01:47:29.138Z,0
2016-06-13T01:49:29.128Z,0
2016-06-13T01:50:28.945Z,0
2016-06-13T01:51:29.166Z,0
2016-06-13T01:52:29.075Z,0
2016-06-13T01:53:55.769Z,0
2016-06-13T01:54:28.972Z,0
2016-06-13T01:55:28.974Z,0
2016-06-13T01:56:44.138Z,0
2016-06-13T01:58:43.472Z,0
2016-06-13T01:59:43.084Z,0
2016-06-13T02:00:43.119Z,0
2016-06-13T02:01:43.496Z,0
2016-06-13T02:02:28.559Z,0
2016-06-13T02:03:29.484Z,0
2016-06-13T02:04:29.675Z,0
2016-06-13T02:05:29.693Z,0
2016-06-13T02:06:29.509Z,0
2016-06-13T02:07:29.716Z,0
2016-06-13T02:08:30.343Z,0
2016-06-13T02:10:29.318Z,0
2016-06-13T02:11:43.637Z,4
2016-06-13T02:12:29.152Z,4
2016-06-13T02:13:29.140Z,4
2016-06-13T02:15:29.366Z,4
2016-06-13T02:16:30.008Z,4
2016-06-13T02:17:28.996Z,4
2016-06-13T02:18:29.389Z,4
2016-06-13T02:19:28.690Z,8
2016-06-13T02:20:29.412Z,4
2016-06-13T02:22:29.433Z,8
2016-06-13T02:23:30.265Z,12
2016-06-13T02:24:43.521Z,12
2016-06-13T02:25:29.286Z,12
2016-06-13T02:26:29.477Z,12
2016-06-13T02:27:29.323Z,12
2016-06-13T02:28:29.514Z,16
2016-06-13T02:29:29.487Z,16
2016-06-13T02:30:43.774Z,20
2016-06-13T02:32:43.796Z,24
2016-06-13T02:33:43.391Z,24
2016-06-13T02:35:29.567Z,32
2016-06-13T02:36:29.742Z,32
2016-06-13T02:37:43.139Z,36
2016-06-13T02:38:29.561Z,36
2016-06-13T02:39:43.832Z,40
2016-06-13T02:40:29.567Z,44
2016-06-13T02:41:29.991Z,48
2016-06-13T02:42:29.385Z,52
2016-06-13T02:43:28.889Z,56
2016-06-13T02:44:29.392Z,64
2016-06-13T02:45:29.378Z,68
2016-06-13T02:46:29.617Z,76
2016-06-13T02:47:29.417Z,84
2016-06-13T02:48:29.482Z,92
2016-06-13T02:49:29.828Z,100
2016-06-13T02:51:44.135Z,128
2016-06-13T02:52:30.244Z,140
2016-06-13T02:53:29.528Z,156
2016-06-13T02:54:43.582Z,176
2016-06-13T02:55:30.114Z,188
2016-06-13T02:56:43.806Z,208
2016-06-13T02:57:29.915Z,220
2016-06-13T02:58:43.813Z,236
2016-06-13T02:59:29.751Z,248
2016-06-13T03:00:29.754Z,260
2016-06-13T03:01:29.240Z,272
2016-06-13T03:02:29.760Z,284
2016-06-13T03:03:29.778Z,292
2016-06-13T03:04:29.984Z,300
2016-06-13T03:05:29.487Z,304
2016-06-13T03:06:44.290Z,312
2016-06-13T03:07:29.650Z,312
2016-06-13T03:08:30.013Z,332
2016-06-13T03:09:29.827Z,360
2016-06-13T03:10:29.877Z,392
2016-06-13T03:11:29.663Z,428
2016-06-13T03:13:29.839Z,520
2016-06-13T03:14:30.250Z,560
2016-06-13T03:15:29.643Z,588
2016-06-13T03:16:29.880Z,608
2016-06-13T03:17:30.462Z,624
2016-06-13T03:18:29.652Z,628
2016-06-13T03:19:29.671Z,628
2016-06-13T03:20:29.752Z,620
2016-06-13T03:21:29.084Z,592
2016-06-13T03:22:29.758Z,564
2016-06-13T03:23:29.761Z,552
2016-06-13T03:24:44.233Z,560
2016-06-13T03:25:29.471Z,572
2016-06-13T03:26:30.723Z,604
2016-06-13T03:27:29.983Z,656
2016-06-13T03:28:30.683Z,692
2016-06-13T03:29:30.304Z,712
2016-06-13T03:30:30.145Z,712
2016-06-13T03:31:30.391Z,688
2016-06-13T03:32:30.202Z,656
2016-06-13T03:33:30.453Z,612
2016-06-13T03:34:30.049Z,596
2016-06-13T03:35:30.472Z,624
2016-06-13T03:36:30.115Z,700
2016-06-13T03:37:30.127Z,776
2016-06-13T03:38:30.385Z,836
2016-06-13T03:39:30.160Z,912
2016-06-13T03:40:30.152Z,948
2016-06-13T03:41:45.114Z,936
2016-06-13T03:42:45.073Z,948
2016-06-13T03:43:30.844Z,972
2016-06-13T03:44:30.833Z,984
2016-06-13T03:45:31.041Z,980
2016-06-13T03:46:30.234Z,932
2016-06-13T03:47:30.458Z,840
2016-06-13T03:48:44.337Z,740
2016-06-13T03:49:30.261Z,700
2016-06-13T03:50:30.281Z,664
2016-06-13T03:51:30.285Z,632
2016-06-13T03:52:30.492Z,604
2016-06-13T03:53:30.307Z,572
2016-06-13T03:54:30.311Z,564
2016-06-13T03:55:30.313Z,576
2016-06-13T03:56:30.629Z,580
2016-06-13T03:58:30.745Z,632
2016-06-13T03:59:44.451Z,648
2016-06-13T04:00:44.172Z,652
2016-06-13T04:01:30.363Z,652
2016-06-13T04:02:30.585Z,652
2016-06-13T04:03:30.620Z,672
2016-06-13T04:04:30.388Z,712
2016-06-13T04:06:30.425Z,780
2016-06-13T04:07:30.398Z,792
2016-06-13T04:08:30.822Z,820
2016-06-13T04:09:30.449Z,860
2016-06-13T04:10:44.532Z,1028
2016-06-13T04:11:45.347Z,1180
2016-06-13T04:12:30.631Z,1236
2016-06-13T04:13:44.541Z,1216
2016-06-13T04:14:44.262Z,1152
2016-06-13T04:15:44.968Z,1116
2016-06-13T04:16:31.785Z,1044
2016-06-13T04:17:30.506Z,916
2016-06-13T04:18:45.024Z,760
2016-06-13T04:19:30.263Z,684
2016-06-13T04:20:30.578Z,612
2016-06-13T04:21:45.033Z,580
2016-06-13T04:22:30.568Z,568
2016-06-13T04:23:30.571Z,556
2016-06-13T04:24:30.778Z,540
2016-06-13T04:25:30.609Z,528
2016-06-13T04:27:31.912Z,584
2016-06-13T04:29:30.621Z,724
2016-06-13T04:30:30.655Z,828
2016-06-13T04:31:30.659Z,1008
2016-06-13T04:32:30.958Z,1160
2016-06-13T04:33:44.930Z,1276
2016-06-13T04:34:30.183Z,1272
2016-06-13T04:36:31.330Z,1232
2016-06-13T04:37:30.723Z,1444
2016-06-13T04:38:31.118Z,1708
2016-06-13T04:39:31.136Z,1888
2016-06-13T04:40:30.936Z,2040
2016-06-13T04:42:30.864Z,2608
2016-06-13T04:43:31.367Z,2812
2016-06-13T04:44:30.980Z,2800
2016-06-13T04:45:30.779Z,2700
2016-06-13T04:46:45.095Z,2712
2016-06-13T04:48:30.632Z,2980
2016-06-13T04:49:44.729Z,3444
2016-06-13T04:50:44.544Z,3624
2016-06-13T04:51:30.814Z,3160
2016-06-13T04:52:45.582Z,2668
2016-06-13T04:53:30.835Z,2856
2016-06-13T04:54:31.932Z,3148
2016-06-13T04:55:31.091Z,3212
2016-06-13T04:56:30.907Z,3420
2016-06-13T04:57:31.161Z,3660
2016-06-13T04:59:30.900Z,5124
2016-06-13T05:00:30.747Z,5352
2016-06-13T05:01:30.751Z,5384
2016-06-13T05:02:31.379Z,5200
2016-06-13T05:03:30.960Z,4448
2016-06-13T05:05:30.934Z,3148
2016-06-13T05:06:31.266Z,3608
2016-06-13T05:07:44.785Z,4328
2016-06-13T05:08:31.053Z,4732
2016-06-13T05:09:45.494Z,4948
2016-06-13T05:10:45.325Z,4788
2016-06-13T05:12:59.662Z,4912
2016-06-13T05:13:31.053Z,4568
2016-06-13T05:14:44.338Z,4292
2016-06-13T05:15:31.169Z,4424
2016-06-13T05:16:31.234Z,4380
2016-06-13T05:17:59.256Z,4956
2016-06-13T05:18:45.366Z,4672
2016-06-13T05:19:31.540Z,4564
2016-06-13T05:20:31.106Z,4768
2016-06-13T05:21:31.375Z,4980
2016-06-13T05:22:31.331Z,5256
2016-06-13T05:23:31.334Z,5624
2016-06-13T05:24:31.571Z,5748
2016-06-13T05:25:31.168Z,5692
2016-06-13T05:26:31.344Z,6340
2016-06-13T05:27:31.956Z,6672
2016-06-13T05:28:31.192Z,6904
2016-06-13T05:29:31.570Z,6796
2016-06-13T05:30:31.824Z,6472
2016-06-13T05:31:59.784Z,5448
2016-06-13T05:32:31.627Z,5276
2016-06-13T05:33:45.537Z,5584
2016-06-13T05:34:30.836Z,5656
2016-06-13T05:35:31.308Z,5916
2016-06-13T05:36:32.092Z,5784
2016-06-13T05:37:59.427Z,4568
2016-06-13T05:38:31.270Z,4128
2016-06-13T05:39:31.508Z,3312
2016-06-13T05:40:31.308Z,2792
2016-06-13T05:41:31.514Z,3308
2016-06-13T05:42:30.940Z,3900
2016-06-13T05:43:31.521Z,4048
2016-06-13T05:44:31.539Z,3952
2016-06-13T05:46:31.764Z,3888
2016-06-13T05:47:59.942Z,4048
2016-06-13T05:49:31.398Z,3476
2016-06-13T05:50:31.292Z,2888
2016-06-13T05:51:31.857Z,2712
2016-06-13T05:52:32.032Z,2540
2016-06-13T05:53:45.723Z,2520
2016-06-13T05:54:32.055Z,2756
2016-06-13T05:55:31.651Z,2720
2016-06-13T05:56:31.700Z,2912
2016-06-13T05:58:45.801Z,2396
2016-06-13T05:59:45.992Z,2176
2016-06-13T06:00:45.604Z,1984
2016-06-13T06:01:46.215Z,2076
2016-06-13T06:02:46.438Z,1984
2016-06-13T06:03:32.269Z,1972
2016-06-13T06:04:32.178Z,1920
2016-06-13T06:05:31.072Z,1756
2016-06-13T06:06:31.576Z,1732
2016-06-13T06:07:31.797Z,1780
2016-06-13T06:08:45.862Z,1888
2016-06-13T06:10:31.604Z,2080
2016-06-13T06:11:31.825Z,2220
2016-06-13T06:12:32.343Z,2356
2016-06-13T06:13:31.628Z,2348
2016-06-13T06:14:32.053Z,2240
2016-06-13T06:15:32.056Z,2008
2016-06-13T06:16:31.887Z,1780
2016-06-13T06:17:31.578Z,1748
2016-06-13T06:19:35.709Z,2068
2016-06-13T06:20:31.977Z,2404
2016-06-13T06:22:31.796Z,3144
2016-06-13T06:23:32.784Z,3264
2016-06-13T06:24:45.803Z,3616
2016-06-13T06:25:31.727Z,3860
2016-06-13T06:26:31.481Z,4208
2016-06-13T06:27:31.984Z,4264
2016-06-13T06:28:45.862Z,4288
2016-06-13T06:29:59.946Z,4312
2016-06-13T06:30:45.993Z,4352
2016-06-13T06:31:31.043Z,4532
2016-06-13T06:32:32.639Z,4392
2016-06-13T06:33:32.252Z,3896
2016-06-13T06:34:32.318Z,4388
2016-06-13T06:35:33.009Z,4884
2016-06-13T06:36:32.106Z,4628
2016-06-13T06:37:32.154Z,4452
2016-06-13T06:38:46.548Z,5324
2016-06-13T06:39:32.130Z,5572
2016-06-13T06:40:32.164Z,7208
2016-06-13T06:41:31.746Z,7600
2016-06-13T06:42:32.874Z,7040
2016-06-13T06:43:46.002Z,7188
2016-06-13T06:44:46.036Z,7888
2016-06-13T06:45:32.351Z,8500
2016-06-13T06:46:32.354Z,9044
2016-06-13T06:47:46.265Z,8980
2016-06-13T06:48:32.313Z,8780
2016-06-13T06:49:32.817Z,8792
2016-06-13T06:50:32.038Z,9296
2016-06-13T06:51:32.589Z,10068
2016-06-13T06:52:31.998Z,10948
2016-06-13T06:53:32.236Z,10604
2016-06-13T06:54:32.067Z,10188
2016-06-13T06:55:32.428Z,9388
2016-06-13T06:56:32.823Z,9248
2016-06-13T06:57:32.873Z,9308
2016-06-13T06:58:31.985Z,8472
2016-06-13T06:59:32.113Z,8584
2016-06-13T07:00:32.288Z,8736
2016-06-13T07:01:32.089Z,8056
2016-06-13T07:02:32.310Z,7996
2016-06-13T07:03:32.531Z,8176
2016-06-13T07:04:31.957Z,8732
2016-06-13T07:05:32.116Z,8832
2016-06-13T07:06:32.479Z,8732
2016-06-13T07:07:32.466Z,8604
2016-06-13T07:08:46.672Z,9116
2016-06-13T07:09:46.472Z,9252
2016-06-13T07:10:32.397Z,8808
2016-06-13T07:11:32.431Z,9056
2016-06-13T07:13:32.140Z,7148
2016-06-13T07:14:32.457Z,7684
2016-06-13T07:15:32.240Z,6120
2016-06-13T07:17:00.278Z,5140
2016-06-13T07:17:32.497Z,5184
2016-06-13T07:18:31.766Z,5524
2016-06-13T07:19:32.316Z,7844
2016-06-13T07:20:32.052Z,8908
2016-06-13T07:21:32.540Z,7924
2016-06-13T07:22:32.340Z,6844
2016-06-13T07:24:46.831Z,11196
2016-06-13T07:26:31.852Z,11192
2016-06-13T07:27:32.746Z,9604
2016-06-13T07:29:32.409Z,10228
2016-06-13T07:30:46.942Z,12800
2016-06-13T07:31:33.024Z,13736
2016-06-13T07:32:32.620Z,14588
2016-06-13T07:33:46.656Z,15808
2016-06-13T07:34:32.423Z,17056
2016-06-13T07:35:46.505Z,18016
2016-06-13T07:36:32.727Z,18208
2016-06-13T07:37:47.230Z,17600
2016-06-13T07:38:32.171Z,16960
2016-06-13T07:39:32.205Z,16480
2016-06-13T07:40:46.770Z,16064
2016-06-13T07:41:32.509Z,15572
2016-06-13T07:42:46.995Z,16864
2016-06-13T07:43:32.546Z,17984
2016-06-13T07:44:32.783Z,19328
2016-06-13T07:46:32.710Z,20064
2016-06-13T07:47:33.245Z,20000
2016-06-13T07:48:33.045Z,19616
2016-06-13T07:50:33.473Z,18336
2016-06-13T07:51:32.836Z,18176
2016-06-13T07:52:32.667Z,18336
2016-06-13T07:53:32.874Z,18624
2016-06-13T07:54:32.657Z,18112
2016-06-13T07:56:32.898Z,18400
2016-06-13T07:57:32.292Z,18464
2016-06-13T07:58:47.263Z,19104
2016-06-13T07:59:32.642Z,19776
2016-06-13T08:00:32.676Z,19680
2016-06-13T08:01:47.867Z,18944
2016-06-13T08:02:32.807Z,18912
2016-06-13T08:03:47.076Z,18144
2016-06-13T08:04:47.079Z,18912
2016-06-13T08:05:47.191Z,18784
2016-06-13T08:06:47.397Z,19232
2016-06-13T08:07:47.119Z,19392
2016-06-13T08:08:47.325Z,16928
2016-06-13T08:09:32.876Z,16992
2016-06-13T08:10:32.878Z,15904
2016-06-13T08:11:47.350Z,18272
2016-06-13T08:12:33.026Z,18816
2016-06-13T08:13:33.513Z,16544
2016-06-13T08:14:32.937Z,14776
2016-06-13T08:15:33.144Z,13148
2016-06-13T08:16:33.990Z,10068
2016-06-13T08:17:47.244Z,8932
2016-06-13T08:18:33.387Z,9168
2016-06-13T08:19:33.172Z,9148
2016-06-13T08:20:47.362Z,8352
2016-06-13T08:21:34.679Z,9204
2016-06-13T08:22:47.118Z,12496
2016-06-13T08:23:47.747Z,15104
2016-06-13T08:24:33.280Z,16096
2016-06-13T08:25:33.299Z,16352
2016-06-13T08:26:33.709Z,15108
2016-06-13T08:27:33.134Z,14356
2016-06-13T08:28:33.683Z,13372
2016-06-13T08:29:33.312Z,13952
2016-06-13T08:31:47.709Z,11756
2016-06-13T08:32:47.446Z,9792
2016-06-13T08:33:33.371Z,9192
2016-06-13T08:34:33.593Z,10964
2016-06-13T08:35:33.564Z,12772
2016-06-13T08:36:33.209Z,12976
2016-06-13T08:37:33.415Z,13364
2016-06-13T08:38:33.215Z,13800
2016-06-13T08:39:33.451Z,14168
2016-06-13T08:40:47.815Z,13288
2016-06-13T08:41:47.068Z,12604
2016-06-13T08:42:33.820Z,13808
2016-06-13T08:43:47.589Z,16288
2016-06-13T08:44:33.374Z,15648
2016-06-13T08:45:33.314Z,13664
2016-06-13T08:47:33.867Z,8628
2016-06-13T08:48:34.417Z,6048
2016-06-13T08:49:34.046Z,5712
2016-06-13T08:50:33.610Z,7000
2016-06-13T08:51:34.020Z,8812
2016-06-13T08:52:33.586Z,10432
2016-06-13T08:53:33.417Z,12472
2016-06-13T08:54:33.435Z,13804
2016-06-13T08:55:33.673Z,15004
2016-06-13T08:56:33.161Z,15880
2016-06-13T08:57:48.851Z,16928
2016-06-13T08:58:34.245Z,17216
2016-06-13T08:59:48.045Z,17984
2016-06-13T09:00:34.532Z,18752
2016-06-13T09:01:33.989Z,19200
2016-06-13T09:02:33.679Z,19616
2016-06-13T09:04:33.638Z,23136
2016-06-13T09:05:33.704Z,23264
2016-06-13T09:06:34.409Z,23872
2016-06-13T09:07:34.038Z,24128
2016-06-13T09:08:34.073Z,23872
2016-06-13T09:09:33.482Z,24032
2016-06-13T09:11:33.174Z,21408
2016-06-13T09:12:33.756Z,20416
2016-06-13T09:13:34.244Z,18976
2016-06-13T09:14:33.700Z,17920
2016-06-13T09:16:02.082Z,17792
2016-06-13T09:18:48.259Z,18592
2016-06-13T09:21:34.018Z,21760
2016-06-13T09:22:33.834Z,22560
2016-06-13T09:26:47.987Z,20512
2016-06-13T09:28:33.930Z,19488
2016-06-13T09:29:34.122Z,19104
2016-06-13T09:30:48.858Z,18016
2016-06-13T09:33:48.665Z,18112
2016-06-13T09:34:33.840Z,18656
2016-06-13T09:35:48.312Z,19680
2016-06-13T09:36:34.251Z,20096
2016-06-13T09:37:34.583Z,20608
2016-06-13T09:38:34.446Z,20672
2016-06-13T09:39:34.058Z,19136
2016-06-13T09:40:34.077Z,18560
2016-06-13T09:41:34.314Z,18464
2016-06-13T09:42:34.333Z,18336
2016-06-13T09:43:34.946Z,17920
2016-06-13T09:45:34.389Z,18560
2016-06-13T09:46:33.704Z,19328
2016-06-13T09:47:34.161Z,19744
2016-06-13T09:48:48.492Z,21216
2016-06-13T09:49:34.510Z,22240
2016-06-13T09:50:35.467Z,20864
2016-06-13T09:51:35.033Z,18432
2016-06-13T09:52:34.286Z,16352
2016-06-13T09:53:34.695Z,15872
2016-06-13T09:54:34.510Z,15680
2016-06-13T09:55:48.155Z,15384
2016-06-13T09:56:34.298Z,15048
2016-06-13T09:58:34.445Z,14172
2016-06-13T09:59:34.072Z,14852
2016-06-13T10:00:34.607Z,17216
2016-06-13T10:01:48.875Z,18816
2016-06-13T10:02:48.895Z,17056
2016-06-13T10:03:48.226Z,17600
2016-06-13T10:04:34.540Z,18144
2016-06-13T10:05:34.888Z,19520
2016-06-13T10:06:34.501Z,19072
2016-06-13T10:07:34.707Z,17888
2016-06-13T10:09:34.464Z,19488
2016-06-13T10:10:34.684Z,18400
2016-06-13T10:11:34.828Z,18560
2016-06-13T10:12:34.629Z,18816
2016-06-13T10:13:34.554Z,18944
2016-06-13T10:14:34.634Z,19040
2016-06-13T10:15:34.809Z,21408
2016-06-13T10:16:34.938Z,24544
2016-06-13T10:17:35.660Z,20320
2016-06-13T10:18:34.897Z,33120
2016-06-13T10:19:34.680Z,50688
2016-06-13T10:20:34.731Z,42944
2016-06-13T10:21:34.843Z,46016
2016-06-13T10:22:34.753Z,45024
2016-06-13T10:23:34.599Z,22624
2016-06-13T10:24:35.041Z,9008
2016-06-13T10:25:34.762Z,8852
2016-06-13T10:26:34.780Z,9680
2016-06-13T10:27:35.221Z,10916
2016-06-13T10:28:35.287Z,11620
2016-06-13T10:29:35.228Z,12464
2016-06-13T10:30:35.074Z,13200
2016-06-13T10:31:35.203Z,12756
2016-06-13T10:32:34.862Z,11276
2016-06-13T10:33:35.084Z,10548
2016-06-13T10:34:49.180Z,9620
2016-06-13T10:35:35.153Z,9504
2016-06-13T10:36:34.968Z,9376
2016-06-13T10:37:35.017Z,8632
2016-06-13T10:38:34.989Z,7908
2016-06-13T10:39:35.211Z,7328
2016-06-13T10:41:35.796Z,6788
2016-06-13T10:42:35.268Z,6588
2016-06-13T10:43:34.990Z,6988
2016-06-13T10:44:35.445Z,8576
2016-06-13T10:45:35.136Z,10984
2016-06-13T10:46:35.561Z,13592
2016-06-13T10:47:49.408Z,16000
2016-06-13T10:48:35.130Z,17248
2016-06-13T10:49:35.273Z,18464
2016-06-13T10:50:35.214Z,19488
2016-06-13T10:51:35.342Z,19552
2016-06-13T10:52:35.360Z,19456
2016-06-13T10:53:34.895Z,19008
2016-06-13T10:54:35.851Z,19072
2016-06-13T10:55:48.839Z,19712
2016-06-13T10:56:35.201Z,20608
2016-06-13T10:57:35.220Z,22560
2016-06-13T10:58:35.598Z,22400
2016-06-13T10:59:35.523Z,23552
2016-06-13T11:00:35.057Z,23520
2016-06-13T11:01:35.310Z,22336
2016-06-13T11:02:35.501Z,21984
2016-06-13T11:03:35.363Z,20352
2016-06-13T11:04:35.725Z,19616
2016-06-13T11:05:35.603Z,18784
2016-06-13T11:06:35.779Z,18624
2016-06-13T11:07:35.485Z,18752
2016-06-13T11:08:35.457Z,19392
2016-06-13T11:09:35.741Z,19392
2016-06-13T11:10:35.869Z,19392
2016-06-13T11:11:35.482Z,19072
2016-06-13T11:12:35.219Z,18624
2016-06-13T11:13:50.066Z,19168
2016-06-13T11:14:35.506Z,19552
2016-06-13T11:15:35.556Z,19968
2016-06-13T11:16:35.934Z,20448
2016-06-13T11:17:49.656Z,21024
2016-06-13T11:18:35.987Z,21248
2016-06-13T11:19:35.568Z,22144
2016-06-13T11:21:35.857Z,21664
2016-06-13T11:22:35.641Z,21856
2016-06-13T11:23:35.690Z,21632
2016-06-13T11:24:36.116Z,20928
2016-06-13T11:25:50.025Z,20128
2016-06-13T11:26:35.934Z,21184
2016-06-13T11:27:35.734Z,20640
2016-06-13T11:28:37.065Z,19648
2016-06-13T11:29:35.959Z,19680
2016-06-13T11:30:36.665Z,16512
2016-06-13T11:31:50.058Z,16032
2016-06-13T11:32:35.796Z,16160
2016-06-13T11:33:35.877Z,16352
2016-06-13T11:34:35.334Z,16352
2016-06-13T11:35:49.915Z,13708
2016-06-13T11:36:35.731Z,12016
2016-06-13T11:37:35.859Z,10348
2016-06-13T11:38:36.174Z,9172
2016-06-13T11:39:36.115Z,8184
2016-06-13T11:40:35.993Z,7248
2016-06-13T11:41:36.089Z,6604
2016-06-13T11:42:51.499Z,6260
2016-06-13T11:43:36.299Z,6168
2016-06-13T11:45:36.681Z,5932
2016-06-13T11:46:36.542Z,5592
2016-06-13T11:47:36.967Z,5224
2016-06-13T11:48:51.439Z,4780
2016-06-13T11:50:36.335Z,4036
2016-06-13T11:51:36.308Z,3676
2016-06-13T11:52:36.327Z,3376
2016-06-13T11:53:36.408Z,3132
2016-06-13T11:54:35.895Z,2924
2016-06-13T11:55:36.273Z,2760
2016-06-13T11:56:36.464Z,2664
2016-06-13T11:57:50.671Z,2660
2016-06-13T11:59:37.269Z,2940
2016-06-13T12:00:36.679Z,3212
2016-06-13T12:01:36.480Z,3560
2016-06-13T12:02:37.342Z,3996
2016-06-13T12:03:37.297Z,4328
2016-06-13T12:04:36.504Z,4808
2016-06-13T12:05:36.303Z,5332
2016-06-13T12:06:36.337Z,5804
2016-06-13T12:07:36.857Z,6316
2016-06-13T12:08:50.751Z,7052
2016-06-13T12:10:51.366Z,8508
2016-06-13T12:11:36.806Z,9032
2016-06-13T12:12:36.544Z,9984
2016-06-13T12:13:52.328Z,12032
2016-06-13T12:14:37.097Z,12980
2016-06-13T12:15:50.819Z,14264
2016-06-13T12:16:36.493Z,14832
2016-06-13T12:17:36.512Z,15688
2016-06-13T12:18:36.485Z,16288
2016-06-13T12:19:36.535Z,16800
2016-06-13T12:20:36.678Z,17280
2016-06-13T12:21:36.572Z,17728
2016-06-13T12:22:36.934Z,18016
2016-06-13T12:23:36.843Z,19072
2016-06-13T12:24:51.128Z,17344
2016-06-13T12:25:51.069Z,16736
2016-06-13T12:27:36.605Z,15136
2016-06-13T12:28:36.516Z,14752
2016-06-13T12:29:37.128Z,14404
2016-06-13T12:30:51.131Z,14316
2016-06-13T12:32:36.684Z,14524
2016-06-13T12:33:36.577Z,15200
2016-06-13T12:34:36.762Z,16256
2016-06-13T12:35:37.056Z,17408
2016-06-13T12:36:36.911Z,18752
2016-06-13T12:37:36.955Z,21152
2016-06-13T12:38:36.947Z,21728
2016-06-13T12:39:36.996Z,21376
2016-06-13T12:40:36.405Z,20096
2016-06-13T12:41:51.376Z,17856
2016-06-13T12:42:51.347Z,16608
2016-06-13T12:43:38.060Z,15936
2016-06-13T12:44:50.693Z,14668
2016-06-13T12:45:37.170Z,14132
2016-06-13T12:46:37.616Z,13256
2016-06-13T12:47:38.046Z,12572
2016-06-13T12:48:37.411Z,11848
2016-06-13T12:49:37.244Z,11352
2016-06-13T12:50:37.452Z,11068
2016-06-13T12:52:37.947Z,11432
2016-06-13T12:53:51.576Z,11676
2016-06-13T12:54:51.595Z,11704
2016-06-13T12:55:37.568Z,11596
2016-06-13T12:57:51.434Z,11172
2016-06-13T12:58:37.423Z,10892
2016-06-13T12:59:38.176Z,10572
2016-06-13T13:00:37.414Z,10084
2016-06-13T13:01:37.386Z,9728
2016-06-13T13:02:51.905Z,9376
2016-06-13T13:03:38.048Z,9096
2016-06-13T13:04:37.896Z,8688
2016-06-13T13:05:51.508Z,8244
2016-06-13T13:06:37.652Z,8032
2016-06-13T13:07:37.499Z,7852
2016-06-13T13:09:37.520Z,7800
2016-06-13T13:10:51.821Z,7740
2016-06-13T13:11:52.589Z,7724
2016-06-13T13:12:37.811Z,7740
2016-06-13T13:14:37.583Z,7868
2016-06-13T13:15:37.633Z,8064
2016-06-13T13:16:37.636Z,8308
2016-06-13T13:17:37.858Z,8572
2016-06-13T13:18:37.142Z,8740
2016-06-13T13:19:37.676Z,8672
2016-06-13T13:20:38.507Z,8384
2016-06-13T13:21:38.073Z,8040
2016-06-13T13:22:37.904Z,7712
2016-06-13T13:23:37.985Z,7464
2016-06-13T13:24:52.254Z,7568
2016-06-13T13:25:38.180Z,7876
2016-06-13T13:26:51.823Z,8824
2016-06-13T13:27:37.778Z,9632
2016-06-13T13:28:38.939Z,10788
2016-06-13T13:29:38.707Z,11912
2016-06-13T13:31:38.323Z,13712
2016-06-13T13:32:38.091Z,14320
2016-06-13T13:33:37.672Z,14824
2016-06-13T13:34:37.941Z,15308
2016-06-13T13:35:38.101Z,15776
2016-06-13T13:36:38.478Z,16160
2016-06-13T13:37:51.981Z,16416
2016-06-13T13:38:38.376Z,16672
2016-06-13T13:41:38.182Z,16576
2016-06-13T13:42:52.700Z,16320
2016-06-13T13:43:38.031Z,16224
2016-06-13T13:44:38.097Z,16128
2016-06-13T13:45:38.006Z,15936
2016-06-13T13:46:52.306Z,15464
2016-06-13T13:48:38.250Z,15092
2016-06-13T13:49:38.315Z,14744
2016-06-13T13:50:38.662Z,14472
2016-06-13T13:51:38.103Z,14412
2016-06-13T13:52:38.309Z,14360
2016-06-13T13:53:38.125Z,14380
2016-06-13T13:54:53.722Z,14744
2016-06-13T13:55:38.786Z,15120
2016-06-13T13:56:38.180Z,16096
2016-06-13T13:57:52.684Z,17984
2016-06-13T13:58:38.031Z,20192
2016-06-13T13:59:38.565Z,21024
2016-06-13T14:02:06.993Z,19456
2016-06-13T14:02:52.308Z,19296
2016-06-13T14:03:38.484Z,18976
2016-06-13T14:04:38.300Z,18144
2016-06-13T14:05:52.552Z,16576
2016-06-13T14:07:52.605Z,14380
2016-06-13T14:08:52.312Z,14068
2016-06-13T14:09:38.986Z,13844
2016-06-13T14:10:38.380Z,13696
2016-06-13T14:11:52.524Z,13440
2016-06-13T14:12:52.652Z,12964
2016-06-13T14:13:39.077Z,12556
2016-06-13T14:14:52.455Z,11896
2016-06-13T14:15:52.911Z,11412
2016-06-13T14:16:38.492Z,11224
2016-06-13T14:17:53.026Z,11164
2016-06-13T14:18:38.030Z,11200
2016-06-13T14:19:38.580Z,11196
2016-06-13T14:20:38.848Z,11228
2016-06-13T14:21:39.163Z,11344
2016-06-13T14:22:38.900Z,11420
2016-06-13T14:23:39.170Z,11332
2016-06-13T14:24:38.829Z,11124
2016-06-13T14:25:52.567Z,10804
2016-06-13T14:26:39.007Z,10568
2016-06-13T14:27:38.635Z,10324
2016-06-13T14:28:39.108Z,10268
2016-06-13T14:29:39.954Z,10480
2016-06-13T14:30:38.707Z,11024
2016-06-13T14:31:38.148Z,11672
2016-06-13T14:32:38.682Z,12408
2016-06-13T14:33:38.700Z,13392
2016-06-13T14:34:38.704Z,13800
2016-06-13T14:35:38.940Z,14448
2016-06-13T14:36:38.929Z,14960
2016-06-13T14:37:39.354Z,15304
2016-06-13T14:38:39.138Z,15712